North Charleston, SC

3:22 PM EST on February 14, 2016 (GMT -0500)
Charleston Air Force Base-International | | Change Station
CLOSE
Current Station
Airport
Location: Charleston,
Elevation: 46 ft
Nearby Weather Stations

Elev 46 ft 32.90 °N, 80.04 °W | Updated 26 minutes ago

Mostly Cloudy
Mostly Cloudy
42 °F
Feels Like 36 °F
N
12
Wind Variable Wind from ESE

Today
High -- | Low -- °F
--% Chance of Precip.
Yesterday
High -- | Low -- °F
Precip. -- in
Pressure 30.40 in
Visibility 10.0 miles
Clouds Mostly Cloudy 4000 ft
Mostly Cloudy 25000 ft
Windchill 36 °F
Dew Point 19 °F
Humidity 40%
Rainfall 0.00 in
Snow Depth Not available.
7:04 AM 6:04 PM
Waxing Crescent, 45% visible
METAR KCHS 141956Z 12010KT 10SM BKN040 BKN250 06/M07 A3039 RMK AO2 SLP292 T00561072
Pressure 30.40 in
Visibility 10.0 miles
Clouds Mostly Cloudy 4000 ft
Mostly Cloudy 25000 ft
Windchill 36 °F
Dew Point 19 °F
Humidity 40%
Rainfall 0.00 in
Snow Depth Not available.
7:04 AM 6:04 PM
Waxing Crescent, 45% visible
METAR KCHS 141956Z 12010KT 10SM BKN040 BKN250 06/M07 A3039 RMK AO2 SLP292 T00561072

10-Day Weather Forecast

Almanac

Astronomy

Feb. 14, 2016 Rise Set
Actual Time
Civil Twilight
Nautical Twilight
Astronomical Twilight
Moon
Length of Visible Light
Length of Day
Tomorrow will be .
, % of the Moon is Illuminated

Today's Extremes

State Highs State Lows

Community

WunderPhotos

Upload Photos

1,892,885 photos uploaded!

WunderBlog® & News

Nearby

Air Quality

  Air Quality AQ Index Pollutant
Not available.

Snow Depth

Station Depth Elevation

Earthquake Activity

City Distance Mag. Time & Date
Minimum magnitude displayed is 2.5.

Coastal Water Temperatures

Place Temperature

Stations

Nearby Weather Stations

Station Location Temp. Windchill Dew Point Humidity Wind Precip. Elev Updated Type
                   

Watches & Warnings

There are currently no watches in effect.